Date,TemperatureHighF,TemperatureAvgF,TemperatureLowF,DewpointHighF,DewpointAvgF,DewpointLowF,HumidityHigh,HumidityAvg,HumidityLow,PressureMaxIn,PressureMinIn,WindSpeedMaxMPH,WindSpeedAvgMPH,GustSpeedMaxMPH,PrecipitationSumIn
2013-3-1,30,20,15,17,12,7,79,70,58,29.47,29.34,17,3,17,0.00
2013-3-2,27,18,13,16,10,6,77,72,62,29.50,29.34,11,3,11,0.00
2013-3-3,26,14,-2,16,7,-7,81,74,64,29.34,29.28,14,2,14,0.00
2013-3-4,29,13,-4,16,5,-9,81,70,52,29.41,29.33,13,1,13,0.00
2013-3-5,31,18,1,22,12,-4,82,76,65,29.41,29.26,19,5,19,0.00
2013-3-6,39,32,26,30,26,20,82,78,69,29.51,29.31,16,4,16,0.00
2013-3-7,29,26,24,22,20,18,83,77,69,29.69,29.51,11,2,11,0.00
2013-3-8,40,26,13,30,20,9,83,78,63,29.76,29.63,12,1,12,0.00
2013-3-9,45,32,15,31,22,11,83,70,49,29.63,29.22,11,3,11,0.22
2013-3-10,41,38,36,33,31,27,81,75,70,29.22,29.05,8,3,8,0.30
2013-3-12,23,23,22,17,16,15,76,75,75,29.10,29.07,0,0,0,0.00
2013-3-13,29,23,17,22,16,12,83,75,62,29.44,29.08,14,2,14,0.00
2013-3-14,35,28,17,23,20,12,82,72,55,29.48,29.22,13,3,13,0.00
2013-3-15,32,29,20,25,20,11,81,70,62,29.23,29.11,17,6,17,0.00
2013-3-16,26,20,14,16,12,6,82,72,56,29.27,29.16,15,4,15,0.00
2013-3-17,27,19,13,16,8,5,82,63,46,29.58,29.27,19,5,19,0.00
2013-3-18,40,26,14,25,17,6,80,69,46,29.47,28.75,21,6,21,0.03
2013-3-19,30,25,22,23,19,16,79,77,74,29.07,28.70,25,8,25,0.03
2013-3-20,26,22,20,19,17,15,83,78,66,29.12,28.87,19,6,19,0.00
2013-3-21,27,25,23,22,19,18,83,78,76,29.19,29.05,17,5,21,0.00
2013-3-22,33,28,24,26,22,18,82,78,69,29.31,29.16,16,4,16,0.00
2013-3-23,38,31,26,27,24,21,82,75,59,29.37,29.30,11,2,11,0.00
2013-3-24,35,30,22,26,21,16,82,70,54,29.35,29.10,17,4,17,0.00
2013-3-25,38,33,25,28,25,17,80,72,62,29.26,29.08,18,5,18,0.00
2013-3-26,42,35,31,32,27,24,82,73,51,29.39,29.26,15,3,15,0.00
2013-3-27,43,34,26,30,27,21,82,75,58,29.48,29.36,16,4,16,0.00
2013-3-28,46,36,27,31,26,20,82,68,48,29.54,29.46,18,2,18,0.00
2013-3-29,47,33,19,29,21,14,82,64,39,29.55,29.48,11,2,11,0.00
2013-3-30,51,37,20,35,22,15,82,59,33,29.48,29.06,18,3,18,0.06
2013-3-31,42,37,27,35,29,19,80,73,67,29.06,28.83,27,6,27,0.16